Airfield :
LOGIN :

Register | Disclaimer

   EN    FR    IT 

 










Legend :    VFR   Marginal VFR   IFR   Intensive IFR   Very Intensive IFR
Visi :
Ceiling :
>= 8 km
>= 3000ft
5 to 8 km
1000 to 3000 ft
1500m to 5 km
500 to 1000 ft
800 to 1500m
200 to 500 ft
< 800m
< 200 ft
Symbols :   Thunderstorms  Fog  Heavy snow  Heavy precipitations  Wind > 20 kt
SIGMETs :     Misc.  Thunderstorms  Icing  Turbulence  Mountain Waves  Volcanic Ashes






- Airport Elevation : 142 ft
- IATA code : ALC


LEAL - Alicante

CURRENT METAR :
  • 300230Z 33004KT CAVOK 17/13 Q1016 NOSIG

EXPIRED METARs :
  • 300200Z 33003KT CAVOK 16/13 Q1016 NOSIG
  • 300130Z VRB02KT CAVOK 15/12 Q1016 NOSIG
  • 300100Z VRB01KT CAVOK 18/13 Q1016 NOSIG
  • 300030Z 36002KT CAVOK 17/13 Q1016 NOSIG
  • 300000Z VRB02KT CAVOK 17/12 Q1016 NOSIG

TAF TAF LEAL
Valid from the 30 at 00:00 until the 31 at 00:00 UTC


292300Z 3000/3024 04005KT CAVOK TX26/3012Z TN16/3006Z
BECMG 3007/3009 10010KT
BECMG 3021/3023 36005KT



MET'MAP, your aeronautical weather chart ! - Copyright ORBIFLY December 2007 - Disclaimer

ORBIFLY MET'MAP TEAM :

Programming & Development : Alexandra Zaïnal
Concept & original design : Baudouin d'Aumeries
Assistance for programming : Marc-Olivier Méhu
Technical & hardware support : Manuel Goepfert

Contact : metmap@orbifly.com




SOURCES & CREDITS :

   NOAA